createdAt,value
2022-08-03T00:00:41.282Z,82.65
2022-08-03T00:03:09.364Z,81.84
2022-08-03T00:05:37.747Z,82.04
2022-08-03T00:08:05.926Z,82.57
2022-08-03T00:10:34.901Z,82.51
2022-08-03T00:13:02.775Z,82.88
2022-08-03T00:15:30.840Z,82.93
2022-08-03T00:17:58.778Z,83.68
2022-08-03T00:20:26.657Z,82.62
2022-08-03T00:22:54.617Z,82.77
2022-08-03T00:25:22.520Z,83.06
2022-08-03T00:27:50.501Z,82.83
2022-08-03T00:30:18.891Z,83.47
2022-08-03T00:32:47.800Z,83.50
2022-08-03T00:35:36.416Z,83.52
2022-08-03T00:38:05.677Z,84.56
2022-08-03T00:40:34.481Z,83.43
2022-08-03T00:43:05.389Z,83.66
2022-08-03T00:45:36.657Z,84.02
2022-08-03T00:48:06.549Z,84.09
2022-08-03T00:50:54.923Z,84.14
2022-08-03T00:53:23.184Z,84.90
2022-08-03T00:55:51.535Z,85.53
2022-08-03T00:58:19.630Z,84.65
2022-08-03T01:00:47.575Z,85.36
2022-08-03T01:03:15.572Z,84.73
2022-08-03T01:05:54.026Z,85.68
2022-08-03T01:08:47.703Z,85.93
2022-08-03T01:11:30.474Z,85.82
2022-08-03T01:14:19.323Z,85.02
2022-08-03T01:16:57.556Z,84.28
2022-08-03T01:19:39.908Z,83.84
2022-08-03T01:22:23.708Z,84.78
2022-08-03T01:25:06.037Z,84.78
2022-08-03T01:27:58.209Z,84.70
2022-08-03T01:30:32.497Z,86.34
2022-08-03T01:33:07.591Z,86.29
2022-08-03T01:36:00.438Z,86.96
2022-08-03T01:38:35.097Z,87.61
2022-08-03T01:41:10.789Z,87.98
2022-08-03T01:44:26.898Z,88.36
2022-08-03T01:46:31.458Z,88.62
2022-08-03T01:49:00.733Z,88.88
2022-08-03T01:51:57.772Z,88.93
2022-08-03T01:54:32.034Z,88.18
2022-08-03T01:57:04.906Z,89.46
2022-08-03T01:59:35.819Z,89.99
2022-08-03T02:02:15.649Z,88.23
2022-08-03T02:04:57.697Z,86.68
2022-08-03T02:07:30.875Z,86.43
2022-08-03T02:10:00.844Z,86.81
2022-08-03T02:12:32.464Z,87.18
2022-08-03T02:15:01.780Z,88.26
2022-08-03T02:17:39.362Z,89.10
2022-08-03T02:20:15.229Z,87.68
2022-08-03T02:22:44.641Z,87.97
2022-08-03T02:25:15.557Z,88.87
2022-08-03T02:27:58.433Z,88.43
2022-08-03T02:30:33.388Z,88.50
2022-08-03T02:33:02.132Z,87.62
2022-08-03T02:35:30.744Z,87.02
2022-08-03T02:38:05.538Z,88.12
2022-08-03T02:40:34.022Z,87.71
2022-08-03T02:43:10.622Z,88.18
2022-08-03T02:45:45.869Z,88.13
2022-08-03T02:48:18.022Z,88.71
2022-08-03T02:50:50.089Z,88.22
2022-08-03T02:53:19.825Z,89.25
2022-08-03T02:55:49.001Z,88.28
2022-08-03T02:58:22.883Z,87.94
2022-08-03T03:00:52.369Z,87.05
2022-08-03T03:03:22.166Z,87.49
2022-08-03T03:05:53.496Z,86.74
2022-08-03T03:08:28.781Z,88.11
2022-08-03T03:10:58.741Z,89.57
2022-08-03T03:13:28.740Z,88.06
2022-08-03T03:16:00.575Z,88.77
2022-08-03T03:18:31.040Z,90.26
2022-08-03T03:21:01.118Z,89.23
2022-08-03T03:23:30.629Z,88.96
2022-08-03T03:25:59.059Z,88.47
2022-08-03T03:28:31.072Z,88.83
2022-08-03T03:31:00.732Z,89.42
2022-08-03T03:33:28.842Z,89.97
2022-08-03T03:35:58.624Z,90.49
2022-08-03T03:38:27.062Z,90.64
2022-08-03T03:40:55.350Z,91.35
2022-08-03T03:43:24.829Z,91.73
2022-08-03T03:45:55.796Z,92.14
2022-08-03T03:48:26.209Z,92.28
2022-08-03T03:50:57.542Z,92.40
2022-08-03T03:53:25.939Z,92.18
2022-08-03T03:56:01.954Z,92.62
2022-08-03T03:58:32.723Z,92.60
2022-08-03T04:01:01.723Z,92.65
2022-08-03T04:03:29.923Z,92.44
2022-08-03T04:06:18.229Z,92.32
2022-08-03T04:09:04.708Z,92.22
2022-08-03T04:11:47.575Z,91.85
2022-08-03T04:14:38.088Z,91.52
2022-08-03T04:17:09.363Z,91.44
2022-08-03T04:19:39.180Z,91.23
2022-08-03T04:22:14.071Z,91.13
2022-08-03T04:24:55.682Z,90.68
2022-08-03T04:27:28.867Z,90.21
2022-08-03T04:30:00.688Z,89.92
2022-08-03T04:32:29.950Z,89.11
2022-08-03T04:34:58.247Z,86.67
2022-08-03T04:37:29.229Z,85.18
2022-08-03T04:39:58.535Z,82.17
2022-08-03T04:42:27.737Z,79.61
2022-08-03T04:45:01.026Z,78.35
2022-08-03T04:47:32.567Z,77.00
2022-08-03T04:50:04.936Z,74.54
2022-08-03T04:52:36.268Z,73.36
2022-08-03T04:55:04.583Z,74.39
2022-08-03T04:57:32.464Z,73.04
2022-08-03T05:00:02.945Z,73.29
2022-08-03T05:02:32.096Z,74.31
2022-08-03T05:05:00.604Z,74.40
2022-08-03T05:07:35.438Z,73.45
2022-08-03T05:10:15.759Z,70.98
2022-08-03T05:12:46.305Z,69.12
2022-08-03T05:15:15.086Z,70.16
2022-08-03T05:17:43.322Z,69.70
2022-08-03T05:20:12.173Z,69.12
2022-08-03T05:22:40.058Z,71.46
2022-08-03T05:25:08.382Z,72.22
2022-08-03T05:27:36.489Z,70.59
2022-08-03T05:30:31.265Z,70.31
2022-08-03T05:32:53.835Z,70.74
2022-08-03T05:36:00.784Z,68.02
2022-08-03T05:38:09.763Z,66.47
2022-08-03T05:40:38.588Z,66.35
2022-08-03T05:43:14.914Z,64.65
2022-08-03T05:45:43.444Z,64.88
2022-08-03T05:48:11.412Z,65.47
2022-08-03T05:50:42.767Z,63.92
2022-08-03T05:53:10.886Z,63.28
2022-08-03T05:55:38.905Z,62.76
2022-08-03T05:58:06.882Z,63.85
2022-08-03T06:00:34.836Z,64.09
2022-08-03T06:03:02.914Z,63.87
2022-08-03T06:05:31.550Z,64.02
2022-08-03T06:07:59.644Z,63.08
2022-08-03T06:10:37.822Z,63.67
2022-08-03T06:13:06.188Z,62.80
2022-08-03T06:15:38.206Z,64.75
2022-08-03T06:18:07.835Z,66.13
2022-08-03T06:20:35.712Z,66.76
2022-08-03T06:23:03.694Z,66.37
2022-08-03T06:25:32.225Z,65.08
2022-08-03T06:28:00.547Z,65.27
2022-08-03T06:30:28.401Z,63.20
2022-08-03T06:32:56.429Z,64.34
2022-08-03T06:35:24.599Z,63.64
2022-08-03T06:37:52.617Z,60.02
2022-08-03T06:40:31.530Z,58.39
2022-08-03T06:43:01.046Z,57.54
2022-08-03T06:45:31.766Z,59.26
2022-08-03T06:48:05.901Z,61.74
2022-08-03T06:50:35.129Z,61.41
2022-08-03T06:53:04.388Z,60.36
2022-08-03T06:55:33.121Z,58.37
2022-08-03T06:58:03.226Z,57.67
2022-08-03T07:00:31.617Z,58.72
2022-08-03T07:02:59.512Z,60.52
2022-08-03T07:05:27.524Z,60.20
2022-08-03T07:07:56.965Z,61.13
2022-08-03T07:10:25.301Z,61.29
2022-08-03T07:12:56.348Z,59.54
2022-08-03T07:15:54.643Z,59.60
2022-08-03T07:18:13.336Z,59.93
2022-08-03T07:20:41.380Z,61.12
2022-08-03T07:23:09.888Z,58.36
2022-08-03T07:25:39.832Z,56.47
2022-08-03T07:28:08.304Z,56.10
2022-08-03T07:30:36.168Z,56.43
2022-08-03T07:33:04.170Z,55.50
2022-08-03T07:35:32.046Z,56.82
2022-08-03T07:37:59.854Z,56.05
2022-08-03T07:40:31.718Z,56.43
2022-08-03T07:43:00.516Z,56.29
2022-08-03T07:45:29.180Z,56.50
2022-08-03T07:47:57.193Z,57.46
2022-08-03T07:50:25.389Z,56.42
2022-08-03T07:52:54.009Z,54.54
2022-08-03T07:55:24.091Z,53.38
2022-08-03T07:58:06.721Z,54.37
2022-08-03T08:00:35.197Z,53.12
2022-08-03T08:03:03.958Z,52.38
2022-08-03T08:05:32.252Z,52.45
2022-08-03T08:08:01.060Z,52.59
2022-08-03T08:10:29.200Z,52.05
2022-08-03T08:12:57.539Z,52.54
2022-08-03T08:15:25.442Z,52.74
2022-08-03T08:17:56.590Z,51.77
2022-08-03T08:20:32.927Z,52.84
2022-08-03T08:23:37.687Z,51.78
2022-08-03T08:25:57.543Z,52.60
2022-08-03T08:28:30.199Z,51.97
2022-08-03T08:31:00.206Z,51.64
2022-08-03T08:33:42.130Z,53.02
2022-08-03T08:36:16.069Z,52.81
2022-08-03T08:38:45.068Z,53.24
2022-08-03T08:41:14.583Z,54.68
2022-08-03T08:43:43.214Z,55.36
2022-08-03T08:46:23.629Z,53.90
2022-08-03T08:48:53.526Z,54.99
2022-08-03T08:51:22.518Z,54.68
2022-08-03T08:53:52.992Z,53.84
2022-08-03T08:56:22.744Z,53.88
2022-08-03T08:58:54.634Z,54.30
2022-08-03T09:01:22.764Z,53.57
2022-08-03T09:03:51.310Z,53.50
2022-08-03T09:06:19.276Z,53.21
2022-08-03T09:08:47.175Z,52.84
2022-08-03T09:11:15.034Z,52.50
2022-08-03T09:13:42.906Z,52.85
2022-08-03T09:16:15.922Z,52.83
2022-08-03T09:18:45.889Z,52.38
2022-08-03T09:21:37.775Z,52.01
2022-08-03T09:24:13.139Z,52.47
2022-08-03T09:26:52.226Z,52.28
2022-08-03T09:29:22.719Z,52.32
2022-08-03T09:31:59.503Z,51.90
2022-08-03T09:34:30.525Z,49.72
2022-08-03T09:36:58.511Z,48.52
2022-08-03T09:39:40.417Z,48.21
2022-08-03T09:42:15.678Z,48.07
2022-08-03T09:44:47.081Z,49.08
2022-08-03T09:47:17.656Z,49.20
2022-08-03T09:49:58.780Z,49.09
2022-08-03T09:52:49.469Z,48.65
2022-08-03T09:56:05.201Z,48.67
2022-08-03T09:58:12.676Z,48.88
2022-08-03T10:01:07.868Z,48.59
2022-08-03T10:04:03.999Z,48.74
2022-08-03T10:06:32.964Z,48.61
2022-08-03T10:09:17.309Z,49.13
2022-08-03T10:11:47.027Z,49.18
2022-08-03T10:14:20.900Z,47.65
2022-08-03T10:16:49.349Z,48.19
2022-08-03T10:19:17.850Z,47.95
2022-08-03T10:21:53.644Z,47.88
2022-08-03T10:24:27.304Z,47.56
2022-08-03T10:27:03.641Z,48.12
2022-08-03T10:29:37.552Z,46.95
2022-08-03T10:32:29.214Z,47.13
2022-08-03T10:35:20.044Z,47.52
2022-08-03T10:38:01.028Z,47.43
2022-08-03T10:40:47.922Z,47.36
2022-08-03T10:43:24.609Z,46.35
2022-08-03T10:45:53.055Z,47.45
2022-08-03T10:48:22.422Z,47.40
2022-08-03T10:50:50.774Z,47.45
2022-08-03T10:53:40.447Z,47.05
2022-08-03T10:56:53.289Z,46.58
2022-08-03T10:59:46.974Z,45.30
2022-08-03T11:02:16.516Z,45.52
2022-08-03T11:04:47.444Z,45.82
2022-08-03T11:07:19.505Z,46.67
2022-08-03T11:09:50.262Z,45.49
2022-08-03T11:12:31.058Z,45.28
2022-08-03T11:15:09.178Z,44.49
2022-08-03T11:17:46.338Z,43.64
2022-08-03T11:20:45.757Z,44.05
2022-08-03T11:23:14.893Z,43.27
2022-08-03T11:26:12.811Z,44.07
2022-08-03T11:28:42.268Z,44.56
2022-08-03T11:31:49.673Z,44.53
2022-08-03T11:34:15.214Z,44.11
2022-08-03T11:37:22.503Z,43.53
2022-08-03T11:39:53.265Z,42.23
2022-08-03T11:42:29.034Z,42.86
2022-08-03T11:44:58.816Z,43.90
2022-08-03T11:47:28.748Z,43.90
2022-08-03T11:49:59.189Z,42.28
2022-08-03T11:52:34.228Z,42.49
2022-08-03T11:55:03.019Z,43.03
2022-08-03T11:58:58.395Z,42.72
2022-08-03T12:00:25.841Z,42.73
2022-08-03T12:02:58.492Z,43.19
2022-08-03T12:05:35.283Z,42.26
2022-08-03T12:08:06.624Z,43.53
2022-08-03T12:10:35.089Z,43.18
2022-08-03T12:14:44.982Z,42.85
2022-08-03T12:15:59.393Z,41.38
2022-08-03T12:18:27.613Z,42.25
2022-08-03T12:21:07.296Z,41.65
2022-08-03T12:23:37.796Z,41.74
2022-08-03T12:26:10.105Z,41.93
2022-08-03T12:28:38.664Z,41.57
2022-08-03T12:31:09.213Z,42.39
2022-08-03T12:34:19.114Z,42.27
2022-08-03T12:36:56.173Z,40.52
2022-08-03T12:39:26.353Z,41.68
2022-08-03T12:41:55.747Z,42.02
2022-08-03T12:44:36.828Z,40.73
2022-08-03T12:47:06.915Z,40.87
2022-08-03T12:49:48.653Z,41.24
2022-08-03T12:52:17.970Z,41.20
2022-08-03T12:54:58.576Z,41.69
2022-08-03T12:57:40.536Z,40.55
2022-08-03T13:00:21.514Z,40.37
2022-08-03T13:05:58.173Z,39.54
2022-08-03T13:08:27.294Z,39.63
2022-08-03T13:10:55.752Z,39.38
2022-08-03T13:13:40.201Z,39.39
2022-08-03T13:16:08.185Z,38.50
2022-08-03T13:18:36.206Z,39.38
2022-08-03T13:21:06.100Z,40.01
2022-08-03T13:23:34.037Z,40.44
2022-08-03T13:26:01.876Z,37.53
2022-08-03T13:28:29.718Z,38.49
2022-08-03T13:30:57.865Z,38.87
2022-08-03T13:33:28.373Z,39.34
2022-08-03T13:35:56.676Z,39.94
2022-08-03T13:38:26.919Z,40.79
2022-08-03T13:40:55.335Z,40.70
2022-08-03T13:43:25.086Z,40.53
2022-08-03T13:45:57.758Z,40.82
2022-08-03T13:48:37.009Z,41.36
2022-08-03T13:51:22.232Z,41.65
2022-08-03T13:53:52.376Z,41.92
2022-08-03T13:56:20.211Z,41.10
2022-08-03T13:58:48.292Z,41.60
2022-08-03T14:01:16.406Z,42.40
2022-08-03T14:03:44.639Z,43.07
2022-08-03T14:06:13.748Z,43.07
2022-08-03T14:08:41.688Z,43.45
2022-08-03T14:11:10.069Z,43.49
2022-08-03T14:13:38.475Z,43.63
2022-08-03T14:16:09.861Z,43.97
2022-08-03T14:18:41.422Z,43.85
2022-08-03T14:21:10.086Z,43.58
2022-08-03T14:23:39.223Z,43.71
2022-08-03T14:26:12.008Z,44.29
2022-08-03T14:28:40.293Z,44.72
2022-08-03T14:32:09.914Z,45.28
2022-08-03T14:33:56.500Z,44.89
2022-08-03T14:36:25.391Z,45.12
2022-08-03T14:38:56.107Z,45.55
2022-08-03T14:41:26.136Z,45.96
2022-08-03T14:44:01.151Z,46.07
2022-08-03T14:46:31.105Z,45.98
2022-08-03T14:50:31.596Z,46.02
2022-08-03T14:51:53.500Z,46.01
2022-08-03T14:54:22.660Z,45.44
2022-08-03T14:56:50.626Z,46.01
2022-08-03T14:59:18.690Z,46.02
2022-08-03T15:02:06.262Z,46.15
2022-08-03T15:04:36.866Z,45.80
2022-08-03T15:07:04.806Z,46.12
2022-08-03T15:09:33.012Z,46.14
2022-08-03T15:12:01.025Z,46.11
2022-08-03T15:14:33.222Z,46.74
2022-08-03T15:17:02.848Z,46.81
2022-08-03T15:20:02.117Z,46.61
2022-08-03T15:22:20.813Z,46.80
2022-08-03T15:24:53.793Z,47.19
2022-08-03T15:27:22.312Z,47.70
2022-08-03T15:30:08.133Z,48.30
2022-08-03T15:32:38.125Z,47.44
2022-08-03T15:35:06.972Z,47.74
2022-08-03T15:37:34.848Z,47.81
2022-08-03T15:40:03.621Z,47.37
2022-08-03T15:42:33.137Z,46.83
2022-08-03T15:45:00.977Z,47.08
2022-08-03T15:47:28.905Z,47.23
2022-08-03T15:49:56.856Z,48.19
2022-08-03T15:52:25.008Z,48.78
2022-08-03T15:54:52.877Z,48.26
2022-08-03T15:57:22.547Z,47.86
2022-08-03T15:59:50.944Z,47.45
2022-08-03T16:02:18.965Z,47.54
2022-08-03T16:04:46.933Z,47.85
2022-08-03T16:07:16.023Z,48.05
2022-08-03T16:09:44.401Z,48.07
2022-08-03T16:12:16.205Z,48.33
2022-08-03T16:14:52.981Z,48.59
2022-08-03T16:17:22.688Z,48.68
2022-08-03T16:19:54.762Z,47.88
2022-08-03T16:22:24.495Z,48.35
2022-08-03T16:24:54.004Z,47.90
2022-08-03T16:27:56.517Z,48.63
2022-08-03T16:30:11.751Z,48.20
2022-08-03T16:32:39.808Z,47.79
2022-08-03T16:35:08.799Z,48.16
2022-08-03T16:37:39.067Z,47.78
2022-08-03T16:40:17.270Z,48.69
2022-08-03T16:42:47.733Z,49.17
2022-08-03T16:45:15.669Z,48.97
2022-08-03T16:47:43.816Z,48.67
2022-08-03T16:50:19.122Z,49.24
2022-08-03T16:52:50.717Z,49.36
2022-08-03T16:55:48.921Z,49.76
2022-08-03T16:58:07.322Z,50.16
2022-08-03T17:00:41.880Z,50.26
2022-08-03T17:03:19.160Z,50.46
2022-08-03T17:05:50.115Z,50.44
2022-08-03T17:08:26.237Z,50.49
2022-08-03T17:10:56.900Z,50.34
2022-08-03T17:13:38.794Z,50.93
2022-08-03T17:16:10.616Z,50.78
2022-08-03T17:18:47.564Z,51.11
2022-08-03T17:21:17.721Z,51.37
2022-08-03T17:24:01.663Z,51.74
2022-08-03T17:26:31.206Z,51.06
2022-08-03T17:29:11.203Z,51.16
2022-08-03T17:31:48.700Z,51.40
2022-08-03T17:34:27.634Z,51.35
2022-08-03T17:37:04.525Z,51.65
2022-08-03T17:39:57.595Z,51.19
2022-08-03T17:42:30.678Z,51.81
2022-08-03T17:45:03.857Z,52.43
2022-08-03T17:50:27.953Z,52.66
2022-08-03T17:53:07.114Z,52.85
2022-08-03T17:55:57.534Z,52.54
2022-08-03T17:58:59.474Z,52.95
2022-08-03T18:02:12.289Z,52.62
2022-08-03T18:05:16.499Z,52.69
2022-08-03T18:07:59.526Z,52.55
2022-08-03T18:10:36.385Z,52.79
2022-08-03T18:13:30.072Z,53.17
2022-08-03T18:16:05.675Z,53.16
2022-08-03T18:18:44.832Z,53.33
2022-08-03T18:21:19.684Z,53.50
2022-08-03T18:24:00.332Z,53.46
2022-08-03T18:26:31.422Z,53.87
2022-08-03T18:29:05.583Z,54.13
2022-08-03T18:32:03.265Z,54.06
2022-08-03T18:34:33.349Z,54.51
2022-08-03T18:39:58.181Z,55.07
2022-08-03T18:42:32.313Z,55.04
2022-08-03T18:45:56.318Z,55.33
2022-08-03T18:48:20.672Z,55.64
2022-08-03T18:51:09.720Z,55.91
2022-08-03T18:54:04.125Z,56.21
2022-08-03T18:56:55.764Z,56.51
2022-08-03T18:59:32.189Z,56.69
2022-08-03T19:02:30.186Z,57.12
2022-08-03T19:05:08.053Z,57.33
2022-08-03T19:07:41.393Z,57.60
2022-08-03T19:10:11.221Z,57.97
2022-08-03T19:12:53.077Z,58.17
2022-08-03T19:15:36.734Z,58.51
2022-08-03T19:18:11.229Z,58.73
2022-08-03T19:20:40.090Z,58.89
2022-08-03T19:23:11.420Z,59.15
2022-08-03T19:25:43.472Z,59.47
2022-08-03T19:28:11.688Z,59.55
2022-08-03T19:30:53.261Z,59.87
2022-08-03T19:33:25.706Z,60.39
2022-08-03T19:35:58.348Z,60.96
2022-08-03T19:38:34.541Z,61.14
2022-08-03T19:41:04.111Z,61.50
2022-08-03T19:43:53.907Z,61.92
2022-08-03T19:46:31.114Z,62.13
2022-08-03T19:49:01.007Z,62.56
2022-08-03T19:51:58.893Z,62.93
2022-08-03T19:54:29.322Z,62.27
2022-08-03T19:57:01.786Z,62.67
2022-08-03T19:59:50.290Z,62.76
2022-08-03T20:02:26.615Z,62.89
2022-08-03T20:04:59.975Z,63.14
2022-08-03T20:07:30.965Z,63.66
2022-08-03T20:10:01.456Z,64.15
2022-08-03T20:12:38.755Z,64.71
2022-08-03T20:15:09.280Z,65.06
2022-08-03T20:17:57.125Z,65.41
2022-08-03T20:20:38.197Z,65.92
2022-08-03T20:23:14.052Z,66.39
2022-08-03T20:25:57.142Z,66.80
2022-08-03T20:28:35.903Z,67.13
2022-08-03T20:31:32.444Z,67.63
2022-08-03T20:34:09.392Z,67.94
2022-08-03T20:36:41.439Z,68.23
2022-08-03T20:39:10.618Z,68.46
2022-08-03T20:41:43.567Z,68.78
2022-08-03T20:44:17.079Z,68.97
2022-08-03T20:47:00.225Z,69.21
2022-08-03T20:49:29.334Z,69.47
2022-08-03T20:52:18.461Z,70.19
2022-08-03T20:54:56.447Z,70.25
2022-08-03T20:57:28.801Z,70.53
2022-08-03T21:00:09.136Z,70.87
2022-08-03T21:02:40.777Z,71.19
2022-08-03T21:05:10.836Z,71.47
2022-08-03T21:08:06.934Z,71.85
2022-08-03T21:10:40.716Z,72.19
2022-08-03T21:12:55.172Z,52.41
2022-08-03T21:13:05.448Z,54.78
2022-08-03T21:16:11.962Z,72.53
2022-08-03T21:18:44.875Z,72.38
2022-08-03T21:21:17.234Z,72.85
2022-08-03T21:23:50.229Z,72.93
2022-08-03T21:26:20.929Z,73.39
2022-08-03T21:28:51.542Z,73.67
2022-08-03T21:31:25.484Z,73.82
2022-08-03T21:33:56.652Z,73.88
2022-08-03T21:36:28.207Z,74.00
2022-08-03T21:38:57.809Z,74.38
2022-08-03T21:41:28.978Z,74.62
2022-08-03T21:43:58.006Z,75.08
2022-08-03T21:46:30.872Z,75.12
2022-08-03T21:50:05.893Z,75.21
2022-08-03T21:51:58.696Z,75.19
2022-08-03T21:54:47.040Z,75.41
2022-08-03T21:57:38.475Z,75.65
2022-08-03T22:00:09.348Z,75.93
2022-08-03T22:02:44.850Z,76.09
2022-08-03T22:05:29.195Z,76.38
2022-08-03T22:08:13.552Z,76.50
2022-08-03T22:10:45.015Z,76.80
2022-08-03T22:13:15.225Z,76.76
2022-08-03T22:15:43.419Z,77.03
2022-08-03T22:18:11.417Z,77.21
2022-08-03T22:20:39.464Z,77.29
2022-08-03T22:23:08.307Z,77.41
2022-08-03T22:25:39.402Z,77.52
2022-08-03T22:28:15.331Z,77.35
2022-08-03T22:30:43.656Z,77.37
2022-08-03T22:33:14.544Z,77.33
2022-08-03T22:35:49.479Z,77.50
2022-08-03T22:38:18.725Z,77.79
2022-08-03T22:40:51.156Z,77.65
2022-08-03T22:43:24.243Z,77.63
2022-08-03T22:46:07.618Z,77.88
2022-08-03T22:48:40.683Z,78.11
2022-08-03T22:51:10.045Z,78.16
2022-08-03T22:53:41.014Z,78.35
2022-08-03T22:56:09.293Z,78.28
2022-08-03T22:58:38.907Z,78.30
2022-08-03T23:01:08.986Z,78.49
2022-08-03T23:03:59.632Z,78.69
2022-08-03T23:06:37.392Z,79.17
2022-08-03T23:09:11.229Z,79.25
2022-08-03T23:11:45.188Z,79.37
2022-08-03T23:14:18.114Z,79.45
2022-08-03T23:16:47.507Z,79.66
2022-08-03T23:19:25.787Z,80.14
2022-08-03T23:22:02.890Z,80.52
2022-08-03T23:24:39.489Z,80.71
2022-08-03T23:27:09.567Z,81.18
2022-08-03T23:29:44.373Z,81.25
2022-08-03T23:32:14.575Z,81.47
2022-08-03T23:35:03.681Z,81.44
2022-08-03T23:37:33.384Z,81.56
2022-08-03T23:40:30.863Z,81.88
2022-08-03T23:43:00.183Z,82.15
2022-08-03T23:45:29.135Z,82.36
2022-08-03T23:47:57.313Z,82.49
2022-08-03T23:50:27.780Z,82.36
2022-08-03T23:53:18.643Z,82.84
2022-08-03T23:56:19.344Z,82.98
2022-08-03T23:58:47.083Z,83.21
